ADDS METAR Data INFO
IDs: Format: Raw Decoded Include TAF

Data at: 0839 UTC 21 Oct 2017

KMTV 210835Z AUTO 00000KT 10SM CLR 06/06 A3031 RMK AO2 T00640060
KMTV 210815Z AUTO 00000KT 10SM CLR 07/06 A3030 RMK AO2 T00650062
KMTV 210755Z AUTO 00000KT 10SM CLR 07/06 A3030 RMK AO2 T00650060
KMTV 210735Z AUTO 00000KT 10SM CLR 07/07 A3030 RMK AO2 T00700065
KMTV 210715Z AUTO 00000KT 1 3/4SM BR VV007 07/07 A3030 RMK AO2 VIS 3/4V5 T00700066
KMTV 210655Z AUTO 00000KT 10SM CLR 07/07 A3030 RMK AO2 T00700066
KMTV 210635Z AUTO 00000KT 10SM CLR 07/07 A3030 RMK AO2 T00740070
KMTV 210615Z AUTO 00000KT 10SM CLR 08/07 A3030 RMK AO2 T00760072
KMTV 210555Z AUTO 00000KT 10SM CLR 08/08 A3030 RMK AO2 T00790075 10131 20075 402550035
KMTV 210535Z AUTO 00000KT 10SM CLR 08/07 A3030 RMK AO2 T00760072
KMTV 210515Z AUTO 00000KT 7SM CLR 09/08 A3030 RMK AO2 T00850082
KMTV 210455Z AUTO 00000KT 10SM CLR 08/08 A3030 RMK AO2 T00820078
KMTV 210435Z AUTO 00000KT 10SM CLR 09/08 A3030 RMK AO2 T00870083
KMTV 210415Z AUTO 00000KT 10SM CLR 09/09 A3030 RMK AO2 T00910087
KMTV 210355Z AUTO 00000KT 3SM BR CLR 09/09 A3030 RMK AO2 T00940089
KMTV 210335Z AUTO 00000KT 10SM CLR 09/09 A3030 RMK AO2 T00920086
KMTV 210315Z AUTO 00000KT 10SM CLR 09/09 A3030 RMK AO2 T00930087
KMTV 210255Z AUTO 00000KT 10SM CLR 10/09 A3029 RMK AO2 T00990092
KMTV 210235Z AUTO 00000KT 10SM CLR 10/10 A3029 RMK AO2 T01010095
KMTV 210215Z AUTO 00000KT 10SM CLR 10/10 A3028 RMK AO2 T01020095
KMTV 210155Z AUTO 00000KT 10SM CLR 11/10 A3028 RMK AO2 T01060097
KMTV 210135Z AUTO 00000KT 10SM CLR 11/10 A3027 RMK AO2 T01110101
KMTV 210115Z AUTO 00000KT 10SM CLR 11/10 A3026 RMK AO2 T01110098
KMTV 210055Z AUTO 00000KT 10SM CLR 12/10 A3026 RMK AO2 T01150100
KMTV 210035Z AUTO 00000KT 10SM CLR 12/10 A3026 RMK AO2 T01170102
KMTV 210015Z AUTO 00000KT 10SM CLR 13/10 A3026 RMK AO2 T01250104
KMTV 202355Z AUTO 00000KT 10SM CLR 13/11 A3026 RMK AO2 T01320106 10255 20132
KMTV 202335Z AUTO 00000KT 10SM CLR 14/11 A3025 RMK AO2 T01370110
KMTV 202315Z AUTO 00000KT 10SM CLR 15/11 A3025 RMK AO2 T01470111
KMTV 202255Z AUTO 00000KT 10SM CLR 16/12 A3024 RMK AO2 T01560115
KMTV 202235Z AUTO 00000KT 10SM CLR 17/12 A3024 RMK AO2 T01700118
KMTV 202215Z AUTO 00000KT 10SM CLR 19/13 A3023 RMK AO2 T01850127
KMTV 202155Z AUTO 00000KT 10SM CLR 22/10 A3023 RMK AO2 T02230100
KMTV 202135Z AUTO 12003KT 10SM CLR 23/10 A3023 RMK AO2 T02310100
KMTV 202115Z AUTO 00000KT 10SM CLR 24/10 A3023 RMK AO2 T02420095
KMTV 202055Z AUTO 00000KT 10SM CLR 24/09 A3022 RMK AO2 T02440089
KMTV 202035Z AUTO 02004KT 10SM CLR 25/09 A3023 RMK AO2 T02480087
KMTV 202015Z AUTO 35003KT 10SM CLR 25/07 A3023 RMK AO2 T02470074
KMTV 201955Z AUTO 00000KT 10SM CLR 25/07 A3024 RMK AO2 T02480073
KMTV 201935Z AUTO 36003KT 10SM CLR 25/09 A3024 RMK AO2 T02470086
KMTV 201915Z AUTO 33005KT 10SM CLR 25/09 A3024 RMK AO2 T02480085
KMTV 201855Z AUTO 00000KT 10SM CLR 25/09 A3024 RMK AO2 T02450088
KMTV 201835Z AUTO 00000KT 10SM CLR 24/09 A3025 RMK AO2 T02420086
KMTV 201815Z AUTO 31004KT 10SM CLR 25/09 A3026 RMK AO2 T02460087
KMTV 201755Z AUTO 00000KT 10SM CLR 24/09 A3027 RMK AO2 T02390092 10241 20037
KMTV 201735Z AUTO 00000KT 10SM CLR 24/09 A3028 RMK AO2 T02370091
KMTV 201715Z AUTO 11003KT 10SM CLR 23/09 A3029 RMK AO2 T02320092
KMTV 201655Z AUTO 34003KT 10SM CLR 23/10 A3031 RMK AO2 T02300096
KMTV 201635Z AUTO 06005KT 10SM CLR 23/10 A3032 RMK AO2 T02270097
KMTV 201615Z AUTO 00000KT 10SM CLR 22/10 A3032 RMK AO2 T02230102
KMTV 201555Z AUTO 34006KT 10SM CLR 22/09 A3033 RMK AO2 T02180094
KMTV 201535Z AUTO 02004KT 10SM CLR 21/09 A3034 RMK AO2 T02130093
KMTV 201515Z AUTO 01005KT 10SM CLR 21/09 A3034 RMK AO2 T02080094
KMTV 201455Z AUTO 35006KT 10SM CLR 20/09 A3034 RMK AO2 T02000088
KMTV 201435Z AUTO 35005KT 10SM CLR 19/09 A3034 RMK AO2 T01940088
KMTV 201415Z AUTO 36006KT 10SM CLR 18/10 A3034 RMK AO2 T01820098
KMTV 201355Z AUTO 33003KT 10SM CLR 15/11 A3033 RMK AO2 T01520113
KMTV 201335Z AUTO 00000KT 10SM CLR 13/10 A3033 RMK AO2 T01280098
KMTV 201315Z AUTO 00000KT 10SM CLR 10/09 A3033 RMK AO2 T01020088
KMTV 201255Z AUTO 00000KT 10SM CLR 08/08 A3032 RMK AO2 T00840078
KMTV 201235Z AUTO 00000KT 10SM CLR 07/07 A3031 RMK AO2 T00680065
KMTV 201215Z AUTO 00000KT 10SM CLR 05/05 A3030 RMK AO2 T00480045
KMTV 201155Z AUTO 00000KT 10SM CLR 04/03 A3030 RMK AO2 T00370033 10060 20035
KMTV 201135Z AUTO 00000KT 10SM CLR 04/03 A3030 RMK AO2 T00360031
KMTV 201115Z AUTO 00000KT 10SM CLR 04/04 A3029 RMK AO2 T00390035
KMTV 201055Z AUTO 00000KT 10SM CLR 04/04 A3029 RMK AO2 T00420038
KMTV 201035Z AUTO 31003KT 10SM CLR 04/04 A3028 RMK AO2 T00390035
KMTV 201015Z AUTO 00000KT 10SM CLR 04/03 A3028 RMK AO2 T00350031
KMTV 200955Z AUTO 00000KT 10SM CLR 04/04 A3027 RMK AO2 T00400037
KMTV 200935Z AUTO 00000KT 10SM CLR 04/04 A3026 RMK AO2 T00400035
KMTV 200915Z AUTO 00000KT 10SM CLR 04/04 A3026 RMK AO2 T00430040
KMTV 200855Z AUTO 00000KT 10SM CLR 04/04 A3026 RMK AO2 T00430040
KMTV 200835Z AUTO 00000KT 10SM CLR 04/04 A3025 RMK AO2 T00410038
KMTV 200815Z AUTO 00000KT 10SM CLR 04/04 A3025 RMK AO2 T00440041
KMTV 200755Z AUTO 00000KT 10SM CLR 05/04 A3025 RMK AO2 T00450041
KMTV 200735Z AUTO 00000KT 10SM CLR 05/04 A3025 RMK AO2 T00470044
KMTV 200715Z AUTO 00000KT 10SM CLR 05/05 A3025 RMK AO2 T00500047
KMTV 200655Z AUTO 00000KT 10SM CLR 05/05 A3025 RMK AO2 T00500045
KMTV 200635Z AUTO 00000KT 10SM CLR 05/05 A3026 RMK AO2 T00520048
KMTV 200615Z AUTO 00000KT 7SM CLR 06/05 A3026 RMK AO2 T00550051
KMTV 200555Z AUTO 00000KT 10SM CLR 06/05 A3026 RMK AO2 T00550051 10112 20055 402390000
KMTV 200535Z AUTO 00000KT 10SM CLR 06/05 A3026 RMK AO2 T00550051
KMTV 200515Z AUTO 00000KT 10SM CLR 06/06 A3026 RMK AO2 T00590056
KMTV 200455Z AUTO 31003KT 7SM CLR 06/05 A3026 RMK AO2 T00580053
KMTV 200435Z AUTO 00000KT 10SM CLR 06/06 A3026 RMK AO2 T00610057
KMTV 200415Z AUTO 00000KT 10SM CLR 07/06 A3026 RMK AO2 T00660062
KMTV 200355Z AUTO 00000KT 7SM CLR 07/06 A3026 RMK AO2 T00650060
KMTV 200335Z AUTO 00000KT 10SM CLR 07/07 A3027 RMK AO2 T00710066
KMTV 200315Z AUTO 00000KT 10SM CLR 07/07 A3026 RMK AO2 T00710065
KMTV 200255Z AUTO 00000KT 10SM CLR 08/07 A3026 RMK AO2 T00770071
KMTV 200235Z AUTO 00000KT 10SM CLR 08/07 A3026 RMK AO2 T00790072
KMTV 200215Z AUTO 00000KT 10SM CLR 08/08 A3026 RMK AO2 T00810075
KMTV 200155Z AUTO 00000KT 10SM CLR 09/08 A3026 RMK AO2 T00850078
KMTV 200135Z AUTO 00000KT 10SM CLR 09/08 A3026 RMK AO2 T00870078
KMTV 200115Z AUTO 00000KT 10SM CLR 09/08 A3025 RMK AO2 T00920082
KMTV 200055Z AUTO 00000KT 10SM CLR 10/09 A3025 RMK AO2 T00970085
KMTV 200035Z AUTO 00000KT 10SM CLR 10/09 A3025 RMK AO2 T01020085
KMTV 200015Z AUTO 00000KT 10SM CLR 11/09 A3025 RMK AO2 T01060086
KMTV 192355Z AUTO 00000KT 10SM CLR 11/09 A3025 RMK AO2 T01140090 10239 20114
KMTV 192335Z AUTO 00000KT 10SM CLR 12/09 A3025 RMK AO2 T01200094
KMTV 192315Z AUTO 00000KT 10SM CLR 14/10 A3024 RMK AO2 T01350099
KMTV 192255Z AUTO 00000KT 10SM CLR 14/10 A3023 RMK AO2 T01370103
KMTV 192235Z AUTO 00000KT 10SM CLR 15/10 A3022 RMK AO2 T01540104
KMTV 192215Z AUTO 00000KT 10SM CLR 18/11 A3022 RMK AO2 T01820108
KMTV 192155Z AUTO 00000KT 10SM CLR 20/11 A3022 RMK AO2 T02010106
KMTV 192130Z AUTO 00000KT 10SM CLR 22/09 A3023 RMK AO2 T02210089
KMTV 192115Z AUTO 00000KT 10SM CLR 23/08 A3023 RMK AO2 T02270076
KMTV 192055Z AUTO 00000KT 10SM CLR 23/07 A3023 RMK AO2 T02300074